createdAt,value
2023-05-13T00:02:11.284Z,51.10
2023-05-13T00:04:39.592Z,51.80
2023-05-13T00:07:07.354Z,51.50
2023-05-13T00:09:34.624Z,51.80
2023-05-13T00:12:03.383Z,51.60
2023-05-13T00:14:30.697Z,52.20
2023-05-13T00:16:58.742Z,53.00
2023-05-13T00:19:26.109Z,53.00
2023-05-13T00:21:53.302Z,53.50
2023-05-13T00:24:20.587Z,52.80
2023-05-13T00:26:47.992Z,54.00
2023-05-13T00:29:15.455Z,54.40
2023-05-13T00:31:42.837Z,54.10
2023-05-13T00:34:10.601Z,54.80
2023-05-13T00:36:37.857Z,55.10
2023-05-13T00:39:05.823Z,55.40
2023-05-13T00:41:33.127Z,55.60
2023-05-13T00:44:01.072Z,55.50
2023-05-13T00:46:33.107Z,55.10
2023-05-13T00:49:01.624Z,56.00
2023-05-13T00:51:28.893Z,55.70
2023-05-13T00:53:58.944Z,56.80
2023-05-13T00:56:28.534Z,56.30
2023-05-13T00:58:56.261Z,56.60
2023-05-13T01:01:32.128Z,55.50
2023-05-13T01:04:43.162Z,55.90
2023-05-13T01:07:19.594Z,55.80
2023-05-13T01:10:02.817Z,57.00
2023-05-13T01:12:33.602Z,57.50
2023-05-13T01:15:08.780Z,57.70
2023-05-13T01:17:38.670Z,57.60
2023-05-13T01:20:07.228Z,57.20
2023-05-13T01:22:34.487Z,57.90
2023-05-13T01:25:02.120Z,60.00
2023-05-13T01:27:31.289Z,59.90
2023-05-13T01:30:01.427Z,60.30
2023-05-13T01:32:32.362Z,59.80
2023-05-13T01:35:01.881Z,59.20
2023-05-13T01:37:32.201Z,60.00
2023-05-13T01:40:00.946Z,60.40
2023-05-13T01:42:30.751Z,61.10
2023-05-13T01:44:58.438Z,61.50
2023-05-13T01:47:25.784Z,62.30
2023-05-13T01:49:53.170Z,62.60
2023-05-13T01:52:20.984Z,62.90
2023-05-13T01:54:48.945Z,63.30
2023-05-13T01:57:16.286Z,64.00
2023-05-13T01:59:43.719Z,64.00
2023-05-13T02:02:11.155Z,63.90
2023-05-13T02:04:38.467Z,64.20
2023-05-13T02:07:06.206Z,64.40
2023-05-13T02:09:33.840Z,64.30
2023-05-13T02:12:01.612Z,64.30
2023-05-13T02:14:29.624Z,64.40
2023-05-13T02:16:56.962Z,65.10
2023-05-13T02:19:24.829Z,65.40
2023-05-13T02:21:52.129Z,64.70
2023-05-13T02:24:19.399Z,65.10
2023-05-13T02:26:46.677Z,64.90
2023-05-13T02:29:14.227Z,64.70
2023-05-13T02:31:43.250Z,65.60
2023-05-13T02:34:10.815Z,66.30
2023-05-13T02:36:38.506Z,65.40
2023-05-13T02:39:06.624Z,65.40
2023-05-13T02:41:34.812Z,64.90
2023-05-13T02:44:02.113Z,65.40
2023-05-13T02:46:29.698Z,65.50
2023-05-13T02:48:57.200Z,65.00
2023-05-13T02:51:24.587Z,64.80
2023-05-13T02:53:51.958Z,64.70
2023-05-13T02:56:19.454Z,65.50
2023-05-13T02:58:47.009Z,65.30
2023-05-13T03:01:14.477Z,65.30
2023-05-13T03:03:42.517Z,65.60
2023-05-13T03:06:09.963Z,65.90
2023-05-13T03:08:38.386Z,65.60
2023-05-13T03:11:05.740Z,66.40
2023-05-13T03:13:33.282Z,66.60
2023-05-13T03:16:00.737Z,67.30
2023-05-13T03:18:31.751Z,67.40
2023-05-13T03:21:00.419Z,66.50
2023-05-13T03:23:28.241Z,66.30
2023-05-13T03:25:57.803Z,66.30
2023-05-13T03:28:25.431Z,67.20
2023-05-13T03:30:53.413Z,67.00
2023-05-13T03:33:21.436Z,67.10
2023-05-13T03:35:50.158Z,67.50
2023-05-13T03:38:23.334Z,67.30
2023-05-13T03:40:52.446Z,67.00
2023-05-13T03:43:20.108Z,67.50
2023-05-13T03:45:54.683Z,67.30
2023-05-13T03:48:36.675Z,67.40
2023-05-13T03:51:07.552Z,66.70
2023-05-13T03:53:36.855Z,66.30
2023-05-13T03:56:04.749Z,66.90
2023-05-13T03:58:32.849Z,66.60
2023-05-13T04:01:02.921Z,67.60
2023-05-13T04:03:31.763Z,67.60
2023-05-13T04:05:59.430Z,67.60
2023-05-13T04:08:27.501Z,66.80
2023-05-13T04:10:57.119Z,67.80
2023-05-13T04:13:26.893Z,68.10
2023-05-13T04:16:02.847Z,67.40
2023-05-13T04:18:31.520Z,67.80
2023-05-13T04:20:59.145Z,67.80
2023-05-13T04:23:26.673Z,68.20
2023-05-13T04:25:54.140Z,68.30
2023-05-13T04:28:21.503Z,67.90
2023-05-13T04:30:50.575Z,68.30
2023-05-13T04:33:17.871Z,67.30
2023-05-13T04:35:46.905Z,67.70
2023-05-13T04:38:14.278Z,67.80
2023-05-13T04:40:41.578Z,68.10
2023-05-13T04:43:12.121Z,68.10
2023-05-13T04:45:59.034Z,68.80
2023-05-13T04:48:28.043Z,68.10
2023-05-13T04:50:58.343Z,68.50
2023-05-13T04:53:26.237Z,68.30
2023-05-13T04:56:00.647Z,67.90
2023-05-13T04:58:29.261Z,67.70
2023-05-13T05:00:57.457Z,67.60
2023-05-13T05:03:24.895Z,67.80
2023-05-13T05:05:52.459Z,67.40
2023-05-13T05:08:20.396Z,67.80
2023-05-13T05:10:49.495Z,67.80
2023-05-13T05:13:17.514Z,67.70
2023-05-13T05:15:44.877Z,68.30
2023-05-13T05:18:14.773Z,68.00
2023-05-13T05:20:45.004Z,67.90
2023-05-13T05:23:20.202Z,67.40
2023-05-13T05:25:48.596Z,67.40
2023-05-13T05:28:17.379Z,67.80
2023-05-13T05:30:46.558Z,68.40
2023-05-13T05:33:20.493Z,68.80
2023-05-13T05:35:48.728Z,68.70
2023-05-13T05:38:17.922Z,68.50
2023-05-13T05:40:46.797Z,67.40
2023-05-13T05:43:14.939Z,67.20
2023-05-13T05:45:42.230Z,66.10
2023-05-13T05:48:12.787Z,65.30
2023-05-13T05:50:41.254Z,64.70
2023-05-13T05:53:10.384Z,64.40
2023-05-13T05:55:39.446Z,63.00
2023-05-13T05:58:10.074Z,62.60
2023-05-13T06:00:39.543Z,62.20
2023-05-13T06:03:07.060Z,62.10
2023-05-13T06:05:35.354Z,61.60
2023-05-13T06:08:02.598Z,61.20
2023-05-13T06:10:30.910Z,61.10
2023-05-13T06:13:00.372Z,61.10
2023-05-13T06:15:30.241Z,61.20
2023-05-13T06:17:57.836Z,60.00
2023-05-13T06:20:25.790Z,59.70
2023-05-13T06:22:53.029Z,60.30
2023-05-13T06:25:20.236Z,59.60
2023-05-13T06:27:47.426Z,60.70
2023-05-13T06:30:14.826Z,59.00
2023-05-13T06:32:53.538Z,58.50
2023-05-13T06:35:27.910Z,57.60
2023-05-13T06:37:55.318Z,57.20
2023-05-13T06:40:23.071Z,57.80
2023-05-13T06:42:50.533Z,58.20
2023-05-13T06:45:23.696Z,57.90
2023-05-13T06:47:52.577Z,58.60
2023-05-13T06:50:20.426Z,59.20
2023-05-13T06:52:48.098Z,59.30
2023-05-13T06:55:16.624Z,59.80
2023-05-13T06:57:46.705Z,58.50
2023-05-13T07:00:15.258Z,58.90
2023-05-13T07:02:42.568Z,58.30
2023-05-13T07:05:12.255Z,57.60
2023-05-13T07:07:39.517Z,57.80
2023-05-13T07:10:07.030Z,57.40
2023-05-13T07:12:34.283Z,57.60
2023-05-13T07:15:01.499Z,57.70
2023-05-13T07:17:28.873Z,58.50
2023-05-13T07:19:56.835Z,56.90
2023-05-13T07:22:24.494Z,56.50
2023-05-13T07:24:51.701Z,57.30
2023-05-13T07:27:18.969Z,56.40
2023-05-13T07:29:46.225Z,57.50
2023-05-13T07:32:13.444Z,56.50
2023-05-13T07:34:40.823Z,56.40
2023-05-13T07:37:08.357Z,55.30
2023-05-13T07:39:35.588Z,55.20
2023-05-13T07:42:03.293Z,56.30
2023-05-13T07:44:30.584Z,55.40
2023-05-13T07:46:57.801Z,56.30
2023-05-13T07:49:25.052Z,55.60
2023-05-13T07:51:52.345Z,55.90
2023-05-13T07:54:19.695Z,55.50
2023-05-13T07:56:47.941Z,53.90
2023-05-13T07:59:15.218Z,55.20
2023-05-13T08:01:43.145Z,55.40
2023-05-13T08:04:10.940Z,55.60
2023-05-13T08:06:38.367Z,54.90
2023-05-13T08:09:06.412Z,54.80
2023-05-13T08:11:33.624Z,55.90
2023-05-13T08:14:00.882Z,55.10
2023-05-13T08:16:28.122Z,54.70
2023-05-13T08:18:55.477Z,55.30
2023-05-13T08:21:22.835Z,53.20
2023-05-13T08:23:53.728Z,52.10
2023-05-13T08:26:20.969Z,51.80
2023-05-13T08:28:48.522Z,51.80
2023-05-13T08:31:16.835Z,51.80
2023-05-13T08:33:46.074Z,50.70
2023-05-13T08:36:13.377Z,50.90
2023-05-13T08:38:42.516Z,50.00
2023-05-13T08:41:13.867Z,48.90
2023-05-13T08:43:43.342Z,49.60
2023-05-13T08:46:12.216Z,49.90
2023-05-13T08:48:41.373Z,50.80
2023-05-13T08:51:09.371Z,47.20
2023-05-13T08:53:39.634Z,46.70
2023-05-13T08:56:09.022Z,45.20
2023-05-13T08:58:36.348Z,45.90
2023-05-13T09:01:05.294Z,43.50
2023-05-13T09:03:32.929Z,41.40
2023-05-13T09:06:03.730Z,41.50
2023-05-13T09:08:32.629Z,36.70
2023-05-13T09:11:00.826Z,37.50
2023-05-13T09:13:28.078Z,37.40
2023-05-13T09:15:55.327Z,36.00
2023-05-13T09:18:31.863Z,37.50
2023-05-13T09:21:24.747Z,34.70
2023-05-13T09:24:03.138Z,35.20
2023-05-13T09:26:30.607Z,34.20
2023-05-13T09:29:25.640Z,34.60
2023-05-13T09:31:55.766Z,34.90
2023-05-13T09:34:31.117Z,33.00
2023-05-13T09:37:06.422Z,33.20
2023-05-13T09:39:39.312Z,33.10
2023-05-13T09:42:14.625Z,32.70
2023-05-13T09:44:42.939Z,31.90
2023-05-13T09:47:17.757Z,32.20
2023-05-13T09:49:52.948Z,32.00
2023-05-13T09:52:22.334Z,33.40
2023-05-13T09:54:49.591Z,32.40
2023-05-13T09:57:16.828Z,32.80
2023-05-13T09:59:44.042Z,31.60
2023-05-13T10:02:15.286Z,30.80
2023-05-13T10:04:42.878Z,30.00
2023-05-13T10:07:11.536Z,34.10
2023-05-13T10:09:40.362Z,30.90
2023-05-13T10:12:09.384Z,30.30
2023-05-13T10:14:38.101Z,33.10
2023-05-13T10:17:06.371Z,32.40
2023-05-13T10:19:34.818Z,32.80
2023-05-13T10:22:02.858Z,30.90
2023-05-13T10:24:30.350Z,30.30
2023-05-13T10:26:58.595Z,29.70
2023-05-13T10:29:26.864Z,31.30
2023-05-13T10:31:55.402Z,33.00
2023-05-13T10:34:24.017Z,31.00
2023-05-13T10:37:25.631Z,31.90
2023-05-13T10:40:32.956Z,31.40
2023-05-13T10:43:10.477Z,33.80
2023-05-13T10:45:37.990Z,30.00
2023-05-13T10:48:11.164Z,29.20
2023-05-13T10:50:39.085Z,29.80
2023-05-13T10:53:20.104Z,31.70
2023-05-13T10:55:52.285Z,31.00
2023-05-13T10:58:22.326Z,32.70
2023-05-13T11:00:50.862Z,32.40
2023-05-13T11:03:18.298Z,29.80
2023-05-13T11:05:58.023Z,32.10
2023-05-13T11:08:43.125Z,30.80
2023-05-13T11:11:22.424Z,31.50
2023-05-13T11:14:13.588Z,29.70
2023-05-13T11:16:48.206Z,28.80
2023-05-13T11:19:27.299Z,31.40
2023-05-13T11:21:57.297Z,30.60
2023-05-13T11:24:26.241Z,29.60
2023-05-13T11:27:01.883Z,31.10
2023-05-13T11:29:34.091Z,33.00
2023-05-13T11:32:03.123Z,29.90
2023-05-13T11:34:31.615Z,29.00
2023-05-13T11:37:04.588Z,31.00
2023-05-13T11:39:32.803Z,32.30
2023-05-13T11:42:01.896Z,31.60
2023-05-13T11:44:29.433Z,32.00
2023-05-13T11:46:56.734Z,30.00
2023-05-13T11:49:49.236Z,27.00
2023-05-13T11:52:18.732Z,31.30
2023-05-13T11:54:53.412Z,29.50
2023-05-13T11:57:22.211Z,28.20
2023-05-13T12:00:07.409Z,29.00
2023-05-13T12:02:37.847Z,31.10
2023-05-13T12:05:11.309Z,32.60
2023-05-13T12:07:39.525Z,31.00
2023-05-13T12:10:07.502Z,31.10
2023-05-13T12:12:40.098Z,30.00
2023-05-13T12:15:18.432Z,29.70
2023-05-13T12:17:46.442Z,31.40
2023-05-13T12:20:14.941Z,33.00
2023-05-13T12:22:45.244Z,30.10
2023-05-13T12:25:41.957Z,30.00
2023-05-13T12:28:13.243Z,29.60
2023-05-13T12:30:52.546Z,29.80
2023-05-13T12:33:25.822Z,30.80
2023-05-13T12:35:55.448Z,30.40
2023-05-13T12:38:24.896Z,32.20
2023-05-13T12:40:53.065Z,31.30
2023-05-13T12:43:20.715Z,30.80
2023-05-13T12:45:53.019Z,32.80
2023-05-13T12:48:23.910Z,32.10
2023-05-13T12:50:51.535Z,33.90
2023-05-13T12:53:18.727Z,29.20
2023-05-13T12:55:45.980Z,31.30
2023-05-13T12:58:13.580Z,31.20
2023-05-13T13:00:40.905Z,28.00
2023-05-13T13:03:08.552Z,29.60
2023-05-13T13:05:36.132Z,28.80
2023-05-13T13:08:05.317Z,29.10
2023-05-13T13:10:32.753Z,28.60
2023-05-13T13:12:59.974Z,29.90
2023-05-13T13:15:27.190Z,26.40
2023-05-13T13:17:54.435Z,27.10
2023-05-13T13:20:22.344Z,27.60
2023-05-13T13:22:49.634Z,25.30
2023-05-13T13:25:16.945Z,26.70
2023-05-13T13:27:44.188Z,24.80
2023-05-13T13:30:11.954Z,23.00
2023-05-13T13:32:39.271Z,27.10
2023-05-13T13:35:07.000Z,23.40
2023-05-13T13:37:35.471Z,24.70
2023-05-13T13:40:03.538Z,24.80
2023-05-13T13:42:43.396Z,23.40
2023-05-13T13:45:15.147Z,23.80
2023-05-13T13:47:42.569Z,20.30
2023-05-13T13:50:10.426Z,21.40
2023-05-13T13:52:37.652Z,22.10
2023-05-13T13:55:05.456Z,20.00
2023-05-13T13:57:32.650Z,19.40
2023-05-13T13:59:59.828Z,18.90
2023-05-13T14:02:27.129Z,19.10
2023-05-13T14:04:54.799Z,20.00
2023-05-13T14:07:22.076Z,18.60
2023-05-13T14:09:49.916Z,19.00
2023-05-13T14:12:17.315Z,17.90
2023-05-13T14:14:44.520Z,19.40
2023-05-13T14:17:12.506Z,18.00
2023-05-13T14:19:41.830Z,18.90
2023-05-13T14:22:09.029Z,20.50
2023-05-13T14:24:36.244Z,19.30
2023-05-13T14:27:03.627Z,17.60
2023-05-13T14:29:31.175Z,17.90
2023-05-13T14:31:59.414Z,20.60
2023-05-13T14:34:30.078Z,18.80
2023-05-13T14:36:57.235Z,18.00
2023-05-13T14:39:24.604Z,17.70
2023-05-13T14:41:51.774Z,17.60
2023-05-13T14:44:19.054Z,15.80
2023-05-13T14:46:46.319Z,16.80
2023-05-13T14:49:13.607Z,16.30
2023-05-13T14:51:41.002Z,16.90
2023-05-13T14:54:08.283Z,17.10
2023-05-13T14:56:36.128Z,19.00
2023-05-13T14:59:03.532Z,20.60
2023-05-13T15:01:30.967Z,19.30
2023-05-13T15:03:59.606Z,19.60
2023-05-13T15:06:26.838Z,18.10
2023-05-13T15:08:54.336Z,17.70
2023-05-13T15:11:21.657Z,17.70
2023-05-13T15:13:48.898Z,18.10
2023-05-13T15:16:16.219Z,17.30
2023-05-13T15:18:45.629Z,15.30
2023-05-13T15:21:12.862Z,16.20
2023-05-13T15:23:40.192Z,16.10
2023-05-13T15:26:07.418Z,16.40
2023-05-13T15:28:34.649Z,14.90
2023-05-13T15:31:01.837Z,15.20
2023-05-13T15:33:29.153Z,15.40
2023-05-13T15:35:56.363Z,14.80
2023-05-13T15:38:23.552Z,14.00
2023-05-13T15:40:50.906Z,14.40
2023-05-13T15:43:18.331Z,14.80
2023-05-13T15:45:45.708Z,15.80
2023-05-13T15:48:13.005Z,15.90
2023-05-13T15:50:40.299Z,15.80
2023-05-13T15:53:07.518Z,15.20
2023-05-13T15:55:36.807Z,15.60
2023-05-13T15:58:04.076Z,15.30
2023-05-13T16:00:31.570Z,15.10
2023-05-13T16:02:58.819Z,16.00
2023-05-13T16:05:26.056Z,14.70
2023-05-13T16:07:53.296Z,17.10
2023-05-13T16:10:20.942Z,18.00
2023-05-13T16:12:48.593Z,20.50
2023-05-13T16:15:15.917Z,21.80
2023-05-13T16:17:43.281Z,22.60
2023-05-13T16:20:11.837Z,23.20
2023-05-13T16:22:39.498Z,25.00
2023-05-13T16:25:09.600Z,25.30
2023-05-13T16:27:37.862Z,24.60
2023-05-13T16:30:08.282Z,22.90
2023-05-13T16:32:35.565Z,21.80
2023-05-13T16:35:03.885Z,20.40
2023-05-13T16:37:31.559Z,18.70
2023-05-13T16:39:58.922Z,17.70
2023-05-13T16:42:26.243Z,17.20
2023-05-13T16:44:53.420Z,18.10
2023-05-13T16:47:21.817Z,18.20
2023-05-13T16:49:50.138Z,18.50
2023-05-13T16:52:17.405Z,18.20
